Time;durP1;ratioP1;P1;durP2;ratioP2;P2;SDS_P1;SDS_P2;PMS_P1;PMS_P2;Temp;Humidity;BMP_temperature;BMP_pressure;BME280_temperature;BME280_humidity;BME280_pressure;Samples;Min_cycle;Max_cycle;Signal;HPM_P1;HPM_P2
2022/02/11 00:07:06;;;;;;;23.60;12.10;;;;;;;4.58;100.00;100876.56;30732871;28;20056;-73
2022/02/11 00:22:08;;;;;;;22.93;10.93;;;;;;;4.51;100.00;100879.13;30736970;28;20059;-74
2022/02/11 00:37:16;;;;;;;21.00;10.80;;;;;;;4.42;100.00;100880.16;30720983;28;20429;-73
2022/02/11 01:07:40;;;;;;;22.80;11.43;;;;;;;4.27;100.00;100864.13;30724036;28;20054;-74
2022/02/11 01:23:07;;;;;;;19.13;11.10;;;;;;;4.20;100.00;100856.72;30726511;28;20063;-73
2022/02/11 01:53:42;;;;;;;20.07;10.33;;;;;;;3.95;100.00;100844.72;30744773;28;20051;-73
2022/02/11 02:43:27;;;;;;;21.00;10.93;;;;;;;3.80;100.00;100834.81;30729468;28;20391;-74
2022/02/11 03:48:51;;;;;;;23.53;11.67;;;;;;;3.37;100.00;100831.28;30746480;28;20047;-74
2022/02/11 05:13:04;;;;;;;35.57;15.70;;;;;;;3.33;100.00;100803.59;30709840;28;20069;-74
2022/02/11 05:28:07;;;;;;;32.17;13.97;;;;;;;3.37;100.00;100807.13;30776470;28;20066;-74
2022/02/11 05:43:09;;;;;;;25.03;11.50;;;;;;;3.52;100.00;100806.31;30740535;28;20055;-74
2022/02/11 05:58:11;;;;;;;24.03;11.17;;;;;;;3.68;100.00;100817.75;30717412;28;20039;-75
2022/02/11 06:13:14;;;;;;;25.97;10.53;;;;;;;3.72;100.00;100793.66;30716558;28;20059;-74
2022/02/11 06:28:16;;;;;;;20.23;10.00;;;;;;;3.75;100.00;100793.72;30691803;28;20058;-73
2022/02/11 06:43:18;;;;;;;15.17;8.80;;;;;;;3.89;100.00;100795.09;30700262;28;20059;-76
2022/02/11 06:58:22;;;;;;;17.23;9.30;;;;;;;4.04;100.00;100788.84;30716945;28;20505;-77
2022/02/11 07:13:23;;;;;;;13.60;6.93;;;;;;;4.22;100.00;100784.59;30731125;28;20138;-74
2022/02/11 07:28:25;;;;;;;17.73;8.23;;;;;;;4.41;100.00;100781.81;30735733;28;20061;-72
2022/02/11 07:43:28;;;;;;;15.60;7.13;;;;;;;4.70;100.00;100771.50;30725793;28;20066;-74
2022/02/11 07:58:45;;;;;;;12.37;6.53;;;;;;;5.02;100.00;100770.03;30740034;28;20051;-74
2022/02/11 08:13:47;;;;;;;15.30;7.57;;;;;;;5.38;100.00;100740.88;30741014;28;20079;-73
2022/02/11 08:28:49;;;;;;;7.63;5.00;;;;;;;6.14;100.00;100738.59;30749262;28;20043;-74
2022/02/11 08:43:50;;;;;;;10.27;5.77;;;;;;;6.86;93.29;100724.44;30763821;28;20169;-72
2022/02/11 08:58:52;;;;;;;8.13;4.87;;;;;;;7.53;92.88;100702.34;30711448;28;20089;-73
2022/02/11 09:13:54;;;;;;;7.17;4.50;;;;;;;8.31;87.33;100669.91;30761331;28;20501;-73
2022/02/11 09:28:56;;;;;;;11.40;4.70;;;;;;;9.24;79.18;100633.25;30700672;28;20433;-74
2022/02/11 09:44:01;;;;;;;9.07;3.97;;;;;;;10.16;78.07;100633.72;30711582;28;20482;-73
2022/02/11 09:59:03;;;;;;;10.37;4.20;;;;;;;9.90;80.22;100608.00;30759814;28;20047;-74
2022/02/11 10:14:36;;;;;;;6.83;4.00;;;;;;;11.62;71.19;100576.34;30703409;28;20432;-73
2022/02/11 10:29:41;;;;;;;6.93;3.40;;;;;;;11.26;72.72;100554.41;30724980;28;20048;-73
2022/02/11 10:44:44;;;;;;;4.88;3.47;;;;;;;12.68;67.09;100512.97;30730418;28;20054;-74
2022/02/11 10:59:47;;;;;;;10.13;4.03;;;;;;;13.59;61.97;100524.88;30744532;28;20056;-73
2022/02/11 11:14:50;;;;;;;5.10;3.03;;;;;;;13.24;66.29;100515.59;30727447;28;20054;-73
2022/02/11 11:30:12;;;;;;;9.93;2.90;;;;;;;11.21;74.07;100508.69;30717226;28;20054;-74
2022/02/11 11:45:27;;;;;;;8.87;3.63;;;;;;;10.12;77.06;100508.22;30750028;28;20048;-74
2022/02/11 12:00:41;;;;;;;5.00;3.27;;;;;;;9.81;77.50;100496.53;30749881;28;20518;-74
2022/02/11 12:15:44;;;;;;;5.27;3.10;;;;;;;9.92;78.23;100492.50;30729539;28;20106;-72
2022/02/11 12:30:47;;;;;;;5.87;2.67;;;;;;;9.60;79.15;100470.41;30755670;28;20061;-74
2022/02/11 12:45:49;;;;;;;6.53;3.67;;;;;;;9.38;82.11;100464.41;30718750;28;20051;-74
2022/02/11 13:00:51;;;;;;;6.13;3.73;;;;;;;9.34;81.40;100447.41;30775958;28;20043;-73
2022/02/11 13:15:55;;;;;;;7.63;3.87;;;;;;;9.36;81.12;100436.19;30737482;28;20409;-72
2022/02/11 13:30:59;;;;;;;6.63;4.33;;;;;;;9.29;83.40;100450.56;30805919;28;20050;-74
2022/02/11 13:46:02;;;;;;;10.50;4.83;;;;;;;8.99;85.21;100442.28;30729078;28;20047;-73
2022/02/11 14:01:25;;;;;;;8.33;3.90;;;;;;;8.85;87.33;100443.16;30766809;28;20508;-73
2022/02/11 14:16:27;;;;;;;10.77;6.20;;;;;;;8.76;90.43;100450.97;30753380;28;20058;-74
2022/02/11 14:31:30;;;;;;;14.13;6.50;;;;;;;8.58;91.49;100455.72;30678265;28;20117;-74
2022/02/11 14:46:32;;;;;;;19.67;11.03;;;;;;;8.47;92.98;100472.03;30741023;28;20055;-74
2022/02/11 15:01:35;;;;;;;13.77;7.33;;;;;;;8.40;94.52;100480.16;30687199;28;20066;-73
2022/02/11 15:16:37;;;;;;;12.67;6.97;;;;;;;8.18;95.70;100503.81;30691542;28;20074;-76
2022/02/11 15:31:40;;;;;;;15.53;7.90;;;;;;;7.98;96.73;100505.41;30753816;28;20058;-73
2022/02/11 15:46:42;;;;;;;16.13;7.90;;;;;;;7.68;98.27;100508.56;30745996;28;20559;-74
2022/02/11 16:01:44;;;;;;;17.27;8.73;;;;;;;7.44;99.16;100515.53;30745715;28;20051;-74
2022/02/11 16:16:45;;;;;;;28.60;10.93;;;;;;;7.23;99.36;100539.84;30770761;28;20065;-75
2022/02/11 16:31:49;;;;;;;21.50;10.47;;;;;;;6.99;96.57;100560.22;30757778;28;20515;-74
2022/02/11 16:46:52;;;;;;;21.93;12.07;;;;;;;6.86;96.76;100578.69;30757824;28;20110;-73
2022/02/11 17:01:54;;;;;;;22.10;11.60;;;;;;;6.80;96.61;100581.00;30729344;29;20061;-73
2022/02/11 17:16:56;;;;;;;24.10;12.07;;;;;;;6.76;96.72;100590.25;30736150;28;20051;-74
2022/02/11 17:31:57;;;;;;;34.20;16.37;;;;;;;6.38;97.27;100608.56;30739600;29;20501;-74
2022/02/11 17:47:04;;;;;;;;;;;;;;;5.91;99.70;100603.25;30747504;28;20058;-74
2022/02/11 18:02:06;;;;;;;29.83;15.60;;;;;;;5.99;100.00;100612.94;30721253;28;20296;-73
2022/02/11 18:17:08;;;;;;;29.53;14.57;;;;;;;6.37;100.00;100615.13;30690223;28;20130;-74
2022/02/11 18:32:10;;;;;;;28.67;12.90;;;;;;;6.33;99.86;100617.03;30729020;28;20055;-74
2022/02/11 18:47:12;;;;;;;38.60;16.23;;;;;;;6.19;100.00;100622.31;30748557;28;20486;-75
2022/02/11 19:02:14;;;;;;;37.60;16.90;;;;;;;6.02;100.00;100648.00;30732439;28;20063;-74
2022/02/11 19:17:16;;;;;;;27.30;12.83;;;;;;;5.94;100.00;100661.78;30742804;28;20482;-72
2022/02/11 19:32:18;;;;;;;22.60;11.80;;;;;;;5.80;100.00;100679.38;30740872;28;20051;-73
2022/02/11 19:47:21;;;;;;;28.23;12.33;;;;;;;5.97;100.00;100728.41;30760776;28;20054;-74
2022/02/11 20:02:26;;;;;;;24.20;13.00;;;;;;;6.21;100.00;100730.56;30726570;28;20054;-74
2022/02/11 20:17:28;;;;;;;24.73;11.50;;;;;;;6.30;100.00;100724.84;30735701;28;20497;-73
2022/02/11 20:32:31;;;;;;;26.43;12.90;;;;;;;6.34;100.00;100737.22;30732100;28;20146;-72
2022/02/11 20:47:33;;;;;;;26.03;12.47;;;;;;;6.30;100.00;100741.81;30763827;28;20386;-74
2022/02/11 21:02:35;;;;;;;25.53;12.97;;;;;;;6.23;100.00;100735.56;30763939;28;20061;-73
2022/02/11 21:17:43;;;;;;;31.00;13.27;;;;;;;6.04;100.00;100747.34;30710702;28;20063;-74
2022/02/11 21:32:46;;;;;;;31.00;13.93;;;;;;;5.96;100.00;100726.88;30732258;28;20055;-73
2022/02/11 21:47:48;;;;;;;65.43;28.37;;;;;;;5.68;100.00;100735.41;30706101;28;20073;-73
2022/02/11 22:02:50;;;;;;;60.13;22.83;;;;;;;5.55;100.00;100748.38;30697390;28;20067;-73
2022/02/11 22:17:52;;;;;;;37.77;19.40;;;;;;;5.60;100.00;100749.97;30674567;28;20062;-72
2022/02/11 22:32:56;;;;;;;38.27;17.67;;;;;;;5.59;100.00;100757.28;30654669;28;20058;-73
2022/02/11 22:48:00;;;;;;;46.63;22.77;;;;;;;5.56;100.00;100758.00;30703566;28;20059;-73
2022/02/11 23:03:03;;;;;;;49.50;22.43;;;;;;;5.53;100.00;100747.97;30725987;28;20054;-74
2022/02/11 23:18:05;;;;;;;47.90;19.23;;;;;;;5.34;100.00;100759.69;30681792;28;20051;-74
2022/02/11 23:33:09;;;;;;;40.40;18.17;;;;;;;5.34;100.00;100748.13;30672705;28;20054;-73
2022/02/11 23:48:11;;;;;;;38.20;16.57;;;;;;;5.37;100.00;100760.88;30729231;28;20132;-72
